Time;durP1;ratioP1;P1;durP2;ratioP2;P2;SDS_P1;SDS_P2;PMS_P1;PMS_P2;Temp;Humidity;BMP_temperature;BMP_pressure;BME280_temperature;BME280_humidity;BME280_pressure;Samples;Min_cycle;Max_cycle;Signal;HPM_P1;HPM_P2
2022/08/12 00:44:43;;;;;;;8.13;5.38;;;20.50;99.90;;;;;;5002952;28;20057;-72
2022/08/12 00:47:11;;;;;;;6.00;5.40;;;20.40;99.90;;;;;;5007657;28;20038;-72
2022/08/12 00:49:37;;;;;;;5.45;4.93;;;20.40;99.90;;;;;;4983684;28;20053;-72
2022/08/12 00:52:05;;;;;;;6.05;5.32;;;20.30;99.90;;;;;;5005931;28;20034;-72
2022/08/12 00:54:44;;;;;;;6.03;5.53;;;20.30;99.90;;;;;;5005554;28;20042;-71
2022/08/12 00:57:16;;;;;;;5.50;4.50;;;20.30;99.90;;;;;;5005560;28;20037;-73
2022/08/12 00:59:47;;;;;;;6.07;5.53;;;20.30;99.90;;;;;;5003121;28;20107;-73
2022/08/12 01:02:26;;;;;;;5.70;5.15;;;20.20;99.90;;;;;;5006899;28;20177;-71
2022/08/12 01:13:31;;;;;;;6.50;5.13;;;20.20;99.90;;;;;;5003229;28;20042;-71
2022/08/12 01:16:00;;;;;;;5.88;4.75;;;20.20;99.90;;;;;;5008053;28;20060;-72
2022/08/12 01:18:28;;;;;;;6.22;5.35;;;20.80;99.90;;;;;;5001031;28;20046;-72
2022/08/12 01:21:18;;;;;;;5.57;5.07;;;20.10;99.90;;;;;;5009057;28;20038;-73
2022/08/12 01:24:05;;;;;;;5.82;5.13;;;20.10;99.90;;;;;;5002698;28;20046;-72
2022/08/12 01:26:32;;;;;;;6.63;5.50;;;20.10;99.90;;;;;;5000584;28;20417;-72
2022/08/12 01:28:59;;;;;;;5.50;5.00;;;20.10;99.90;;;;;;4987292;28;20042;-72
2022/08/12 01:31:28;;;;;;;6.10;5.25;;;20.10;99.90;;;;;;5018668;28;20059;-72
2022/08/12 01:33:58;;;;;;;8.38;5.50;;;20.00;99.90;;;;;;5059848;28;20049;-71
2022/08/12 01:36:27;;;;;;;6.00;4.85;;;20.00;99.90;;;;;;5059826;28;20046;-71
2022/08/12 01:38:56;;;;;;;7.22;5.47;;;20.10;99.90;;;;;;5061059;28;20489;-71
2022/08/12 01:41:29;;;;;;;5.55;5.03;;;20.00;99.90;;;;;;5040427;28;20496;-72
2022/08/12 01:43:59;;;;;;;8.90;5.22;;;19.90;99.90;;;;;;5059145;28;20531;-71
2022/08/12 01:46:37;;;;;;;6.18;4.45;;;19.90;99.90;;;;;;5059116;28;20095;-72
2022/08/12 01:49:21;;;;;;;4.82;4.50;;;19.90;99.90;;;;;;5058818;28;20093;-71
2022/08/12 01:52:03;;;;;;;5.65;5.00;;;19.80;99.90;;;;;;5050984;28;20041;-71
2022/08/12 01:54:43;;;;;;;5.43;4.90;;;19.80;99.90;;;;;;5044475;28;20037;-71
2022/08/12 01:57:25;;;;;;;10.30;5.88;;;19.80;99.90;;;;;;5053883;28;20041;-72
2022/08/12 02:00:04;;;;;;;6.13;4.50;;;19.80;99.90;;;;;;5059739;28;20041;-71
2022/08/12 02:03:07;;;;;;;7.68;4.70;;;19.70;99.90;;;;;;5059238;28;20400;-72
2022/08/12 02:11:28;;;;;;;6.45;4.68;;;19.60;99.90;;;;;;5060789;28;20048;-73
2022/08/12 02:14:10;;;;;;;4.88;4.22;;;19.60;99.90;;;;;;5055302;28;20072;-71
2022/08/12 02:17:00;;;;;;;4.78;4.40;;;19.60;99.90;;;;;;5052173;28;20045;-73
2022/08/12 02:19:44;;;;;;;4.95;4.38;;;19.60;99.90;;;;;;5063026;28;20043;-72
2022/08/12 02:22:29;;;;;;;4.73;4.23;;;19.50;99.90;;;;;;5052293;28;20047;-72
2022/08/12 02:25:06;;;;;;;5.55;4.78;;;19.40;99.90;;;;;;5060519;28;20092;-71
2022/08/12 02:27:38;;;;;;;4.68;4.28;;;19.40;99.90;;;;;;5059083;28;20507;-71
2022/08/12 02:30:10;;;;;;;4.35;3.95;;;19.40;99.90;;;;;;5056968;28;20033;-72
2022/08/12 02:32:41;;;;;;;4.82;4.15;;;19.30;99.90;;;;;;5047055;28;20072;-72
2022/08/12 02:35:15;;;;;;;4.68;4.28;;;19.40;99.90;;;;;;5041739;28;20072;-71
2022/08/12 02:37:42;;;;;;;5.30;4.18;;;19.40;99.90;;;;;;5034207;28;20054;-71
2022/08/12 02:40:11;;;;;;;6.78;3.88;;;19.40;99.90;;;;;;5037526;28;20056;-71
2022/08/12 02:42:42;;;;;;;6.53;3.85;;;19.40;99.90;;;;;;5066281;28;20099;-71
2022/08/12 02:45:10;;;;;;;5.85;4.35;;;19.40;99.90;;;;;;5056255;28;20029;-71
2022/08/12 02:47:40;;;;;;;6.10;4.30;;;19.40;99.90;;;;;;5018430;28;20049;-72
2022/08/12 02:50:08;;;;;;;6.82;4.45;;;19.40;99.90;;;;;;5053060;28;20044;-70
2022/08/12 02:52:35;;;;;;;5.70;4.25;;;19.30;99.90;;;;;;5067425;28;20040;-72
2022/08/12 02:55:14;;;;;;;5.00;4.47;;;19.40;99.90;;;;;;5041663;28;20404;-71
2022/08/12 02:57:43;;;;;;;6.78;4.40;;;19.30;99.90;;;;;;5029368;28;20044;-72
2022/08/12 03:00:10;;;;;;;8.27;5.10;;;19.30;99.90;;;;;;5060930;28;20115;-72
2022/08/12 03:02:38;;;;;;;4.80;4.35;;;19.30;99.90;;;;;;5062751;28;20051;-72
2022/08/12 03:05:04;;;;;;;6.68;4.72;;;19.30;99.90;;;;;;5043665;28;20057;-72
2022/08/12 03:07:36;;;;;;;5.97;4.50;;;19.30;99.90;;;;;;5062212;28;20045;-72
2022/08/12 03:10:08;;;;;;;7.43;4.75;;;19.30;99.90;;;;;;5045566;28;20045;-72
2022/08/12 03:12:45;;;;;;;5.47;4.97;;;19.30;99.90;;;;;;5061777;28;20040;-72
2022/08/12 03:15:13;;;;;;;6.47;4.65;;;19.20;99.90;;;;;;5060921;28;20048;-72
2022/08/12 03:17:55;;;;;;;8.07;5.38;;;19.20;99.90;;;;;;5050684;28;20443;-71
2022/08/12 03:20:21;;;;;;;5.10;4.70;;;19.20;99.90;;;;;;5061355;28;20385;-71
2022/08/12 03:22:49;;;;;;;8.05;5.22;;;19.20;99.90;;;;;;5062851;28;20504;-71
2022/08/12 03:25:20;;;;;;;5.18;4.75;;;19.60;99.90;;;;;;5061303;28;20040;-71
2022/08/12 03:27:50;;;;;;;5.30;4.88;;;19.10;99.90;;;;;;5027834;28;20388;-71
2022/08/12 03:30:20;;;;;;;6.78;5.30;;;19.10;99.90;;;;;;5061547;28;20447;-71
2022/08/12 03:32:47;;;;;;;7.20;5.13;;;19.10;99.90;;;;;;5060575;28;20052;-71
2022/08/12 03:35:29;;;;;;;6.65;4.43;;;19.00;99.90;;;;;;5054426;28;20040;-71
2022/08/12 03:38:07;;;;;;;7.10;5.07;;;18.90;99.90;;;;;;5057243;28;20043;-71
2022/08/12 03:41:41;;;;;;;7.53;5.22;;;18.90;99.90;;;;;;5059361;28;20048;-70
2022/08/12 04:00:27;;;;;;;;;;;18.80;99.90;;;;;;5058001;28;20504;-72
2022/08/12 04:02:57;;;;;;;5.05;4.55;;;18.70;99.90;;;;;;5062202;28;20348;-72
2022/08/12 04:05:24;;;;;;;6.60;4.80;;;18.70;99.90;;;;;;5060294;28;20484;-71
2022/08/12 04:07:51;;;;;;;6.43;5.50;;;18.60;99.90;;;;;;5061025;28;20051;-72
2022/08/12 04:10:18;;;;;;;4.53;4.10;;;18.60;99.90;;;;;;5060963;28;20044;-72
2022/08/12 04:15:39;;;;;;;8.40;4.60;;;18.50;99.90;;;;;;5060906;28;20041;-73
2022/08/12 04:18:05;;;;;;;4.85;4.43;;;18.60;99.90;;;;;;5061586;28;20101;-72
2022/08/12 04:20:31;;;;;;;4.75;4.22;;;18.60;99.90;;;;;;5041187;28;20124;-72
2022/08/12 04:22:57;;;;;;;5.85;5.07;;;18.60;99.90;;;;;;5043098;28;20128;-71
2022/08/12 04:25:25;;;;;;;4.78;4.38;;;18.60;99.90;;;;;;5060595;28;20048;-71
2022/08/12 04:27:53;;;;;;;4.80;4.40;;;18.60;99.90;;;;;;5061480;28;20044;-72
2022/08/12 04:30:19;;;;;;;5.00;4.47;;;18.60;99.90;;;;;;5060868;28;20108;-72
2022/08/12 04:32:46;;;;;;;7.93;4.85;;;18.60;99.90;;;;;;5061371;28;20064;-71
2022/08/12 04:35:12;;;;;;;5.93;4.53;;;18.60;99.90;;;;;;5055674;28;20059;-72
2022/08/12 04:37:38;;;;;;;6.10;4.53;;;18.70;99.90;;;;;;5058399;28;20037;-72
2022/08/12 04:40:04;;;;;;;8.82;4.95;;;18.50;99.90;;;;;;5061446;28;20071;-73
2022/08/12 04:42:31;;;;;;;7.30;4.22;;;18.50;99.90;;;;;;5059161;28;20052;-72
2022/08/12 04:44:57;;;;;;;11.75;4.85;;;18.50;99.90;;;;;;5061456;28;20064;-72
2022/08/12 04:47:23;;;;;;;5.95;4.25;;;18.50;99.90;;;;;;5042801;28;20091;-72
2022/08/12 04:49:49;;;;;;;4.55;4.10;;;18.90;99.90;;;;;;5049318;28;20082;-71
2022/08/12 04:52:15;;;;;;;6.32;4.68;;;18.60;99.90;;;;;;5056077;28;20044;-72
2022/08/12 04:54:42;;;;;;;5.13;4.03;;;18.60;99.90;;;;;;5059757;28;20052;-71
2022/08/12 04:57:08;;;;;;;4.85;3.83;;;18.60;99.90;;;;;;5042472;28;20485;-71
2022/08/12 04:59:35;;;;;;;4.15;3.78;;;18.70;99.90;;;;;;5059255;28;20037;-72
2022/08/12 05:02:00;;;;;;;6.57;4.70;;;18.60;99.90;;;;;;5061042;28;20048;-72
2022/08/12 05:04:26;;;;;;;4.85;3.78;;;18.60;99.90;;;;;;5041828;28;20041;-72
2022/08/12 05:06:52;;;;;;;6.15;3.80;;;18.60;99.90;;;;;;5060620;28;20094;-72
2022/08/12 05:09:18;;;;;;;5.10;3.90;;;18.70;99.90;;;;;;5058900;28;20048;-71
2022/08/12 05:11:48;;;;;;;6.78;3.65;;;18.70;99.90;;;;;;5041989;28;20127;-71
2022/08/12 05:14:15;;;;;;;7.30;4.25;;;18.70;99.90;;;;;;5042352;28;20511;-71
2022/08/12 05:16:40;;;;;;;7.53;3.75;;;18.70;99.90;;;;;;5060012;28;20044;-71
2022/08/12 05:19:06;;;;;;;5.47;4.57;;;18.70;99.90;;;;;;5059962;28;20503;-71
2022/08/12 05:21:32;;;;;;;4.30;3.72;;;18.70;99.90;;;;;;5059682;28;20037;-71
2022/08/12 05:23:59;;;;;;;4.28;3.60;;;18.70;99.90;;;;;;5042515;28;20107;-71
2022/08/12 05:26:25;;;;;;;3.80;3.40;;;18.80;99.90;;;;;;5057965;28;20090;-71
2022/08/12 05:28:52;;;;;;;5.80;3.40;;;18.80;99.90;;;;;;5042201;28;20063;-71
2022/08/12 05:31:19;;;;;;;5.15;4.47;;;18.80;99.90;;;;;;5059401;28;20060;-71
2022/08/12 05:33:46;;;;;;;4.38;3.97;;;19.10;99.90;;;;;;5059402;28;20033;-71
2022/08/12 05:36:14;;;;;;;5.50;3.60;;;18.80;99.90;;;;;;5060239;28;20064;-72
2022/08/12 05:38:56;;;;;;;5.70;3.60;;;18.80;99.90;;;;;;5040652;28;20079;-72
2022/08/12 05:41:30;;;;;;;4.22;3.83;;;19.20;99.90;;;;;;5060603;28;20044;-72
2022/08/12 05:43:59;;;;;;;4.88;3.63;;;18.70;99.90;;;;;;5051760;28;20045;-71
2022/08/12 05:46:26;;;;;;;8.23;4.05;;;18.60;99.90;;;;;;5059789;28;20041;-70
2022/08/12 05:48:55;;;;;;;10.98;3.95;;;18.70;99.90;;;;;;5057463;28;20040;-70
2022/08/12 05:51:25;;;;;;;5.90;4.13;;;18.70;99.90;;;;;;5050506;28;20047;-71
2022/08/12 05:53:52;;;;;;;8.40;4.05;;;18.60;99.90;;;;;;5028567;28;20037;-70
2022/08/12 05:56:28;;;;;;;5.65;4.00;;;19.10;99.90;;;;;;5059749;28;20510;-71
2022/08/12 05:58:55;;;;;;;6.05;4.05;;;18.70;99.90;;;;;;5048275;28;20253;-71
2022/08/12 06:01:22;;;;;;;7.70;4.20;;;18.60;99.90;;;;;;5039703;28;20048;-71
2022/08/12 06:03:49;;;;;;;9.30;4.20;;;18.60;99.90;;;;;;5059519;28;20048;-71
2022/08/12 06:06:16;;;;;;;7.18;3.80;;;18.70;99.90;;;;;;5061593;28;20045;-72
2022/08/12 06:08:45;;;;;;;6.65;3.83;;;18.70;99.90;;;;;;5057457;28;20033;-71
2022/08/12 06:11:11;;;;;;;7.85;4.50;;;18.80;99.90;;;;;;5059901;28;20083;-72
2022/08/12 06:13:38;;;;;;;3.78;3.28;;;18.80;99.90;;;;;;5064430;28;20041;-71
2022/08/12 06:16:09;;;;;;;6.75;3.83;;;18.90;99.90;;;;;;5055779;28;20051;-71
2022/08/12 06:18:38;;;;;;;4.15;3.20;;;18.90;99.90;;;;;;5039196;28;20076;-72
2022/08/12 06:21:06;;;;;;;4.40;2.72;;;18.90;99.90;;;;;;5060522;28;20044;-70
2022/08/12 06:23:32;;;;;;;6.43;3.33;;;18.90;99.90;;;;;;5057010;28;20080;-70
2022/08/12 06:25:58;;;;;;;5.05;3.15;;;19.00;99.90;;;;;;5044899;28;20041;-70
2022/08/12 06:28:24;;;;;;;4.97;3.30;;;19.30;99.90;;;;;;5055451;28;20084;-71
2022/08/12 06:30:50;;;;;;;8.27;2.67;;;19.00;99.90;;;;;;5064229;28;20076;-71
2022/08/12 06:33:17;;;;;;;4.00;2.88;;;19.10;99.90;;;;;;5037789;28;20441;-71
2022/08/12 06:35:43;;;;;;;3.65;2.65;;;19.10;99.90;;;;;;5039421;28;20049;-71
2022/08/12 06:38:23;;;;;;;7.55;3.25;;;19.10;99.90;;;;;;5060056;28;20517;-71
2022/08/12 06:43:38;;;;;;;4.38;2.72;;;19.30;99.90;;;;;;5056471;28;20121;-70
2022/08/12 06:46:04;;;;;;;4.25;2.17;;;19.30;99.90;;;;;;5059720;28;20067;-71
2022/08/12 06:48:31;;;;;;;6.68;2.83;;;19.30;99.90;;;;;;5058671;28;20049;-71
2022/08/12 06:50:57;;;;;;;3.58;2.30;;;19.40;99.90;;;;;;5051029;28;20048;-71
2022/08/12 06:53:25;;;;;;;2.55;2.28;;;19.50;99.90;;;;;;5041748;28;20523;-70
2022/08/12 06:55:55;;;;;;;4.43;2.33;;;19.50;99.90;;;;;;5038342;28;20052;-72
2022/08/12 06:58:23;;;;;;;3.70;2.28;;;19.60;99.90;;;;;;5042794;28;20428;-71
2022/08/12 07:00:50;;;;;;;4.80;2.50;;;19.60;99.90;;;;;;5056788;28;20083;-72
2022/08/12 07:03:26;;;;;;;5.90;2.55;;;19.70;99.90;;;;;;5060288;28;20508;-71
2022/08/12 07:05:56;;;;;;;6.43;2.17;;;19.80;99.90;;;;;;5056178;28;20064;-71
2022/08/12 07:08:28;;;;;;;9.05;2.97;;;19.80;99.90;;;;;;5062591;28;20047;-71
2022/08/12 07:10:57;;;;;;;3.47;2.75;;;19.90;99.90;;;;;;5055459;28;20047;-71
2022/08/12 07:13:25;;;;;;;5.07;2.22;;;19.90;99.90;;;;;;5056423;28;20106;-72
2022/08/12 07:15:54;;;;;;;3.70;2.40;;;20.00;99.90;;;;;;5061933;28;20044;-72
2022/08/12 07:18:20;;;;;;;3.80;2.20;;;20.10;99.90;;;;;;5058842;28;20049;-71
2022/08/12 07:20:47;;;;;;;2.05;1.88;;;20.20;99.90;;;;;;5066194;28;20041;-72
2022/08/12 07:23:15;;;;;;;3.33;2.10;;;20.20;99.90;;;;;;5059003;28;20041;-72
2022/08/12 07:25:41;;;;;;;2.30;2.10;;;20.20;99.90;;;;;;5066412;28;20044;-72
2022/08/12 07:28:11;;;;;;;3.58;1.85;;;20.30;99.90;;;;;;5058926;28;20048;-72
2022/08/12 07:30:40;;;;;;;6.05;2.30;;;20.30;99.90;;;;;;5038939;28;20056;-72
2022/08/12 07:33:08;;;;;;;4.00;2.03;;;20.40;99.90;;;;;;5064104;28;20493;-72
2022/08/12 07:35:44;;;;;;;4.25;1.80;;;20.40;99.90;;;;;;5059264;28;20098;-72
2022/08/12 07:38:37;;;;;;;3.35;1.85;;;20.50;99.90;;;;;;5052701;28;20033;-71
2022/08/12 07:41:09;;;;;;;6.03;2.10;;;20.60;99.90;;;;;;5048518;28;20072;-71
2022/08/12 07:43:37;;;;;;;6.88;2.25;;;20.60;99.90;;;;;;5061100;28;20071;-71
2022/08/12 07:46:05;;;;;;;5.47;2.50;;;21.00;99.90;;;;;;5049630;28;20040;-72
2022/08/12 07:48:36;;;;;;;5.47;2.00;;;20.70;99.90;;;;;;5059795;28;20047;-72
2022/08/12 07:51:02;;;;;;;6.40;2.15;;;20.80;99.90;;;;;;5050399;28;20051;-71
2022/08/12 07:53:28;;;;;;;3.40;2.20;;;20.80;99.90;;;;;;5041104;28;20044;-71
2022/08/12 07:55:54;;;;;;;6.20;1.80;;;20.90;99.90;;;;;;5066421;28;20396;-72
2022/08/12 07:58:22;;;;;;;3.10;1.58;;;21.00;99.90;;;;;;5057976;28;20032;-72
2022/08/12 08:00:48;;;;;;;3.40;2.10;;;21.10;99.90;;;;;;5060453;28;20049;-72
2022/08/12 08:03:15;;;;;;;6.53;1.90;;;21.20;99.90;;;;;;5062748;28;20036;-72
2022/08/12 08:05:48;;;;;;;4.40;2.03;;;21.30;99.90;;;;;;5058447;28;20145;-73
2022/08/12 08:08:32;;;;;;;3.30;1.85;;;21.50;99.90;;;;;;5038100;28;20121;-73
2022/08/12 08:13:45;;;;;;;8.75;1.92;;;21.80;99.90;;;;;;5047118;28;20163;-70
2022/08/12 08:16:14;;;;;;;4.43;1.92;;;21.80;99.90;;;;;;5054026;28;20555;-69
2022/08/12 08:18:40;;;;;;;5.57;1.70;;;22.00;99.90;;;;;;5057115;28;20052;-69
2022/08/12 08:21:07;;;;;;;4.03;2.10;;;22.10;99.90;;;;;;5047905;28;20085;-69
2022/08/12 08:26:19;;;;;;;3.72;1.90;;;22.30;99.90;;;;;;5046238;28;20386;-71
2022/08/12 08:28:45;;;;;;;6.65;1.88;;;22.50;99.90;;;;;;5051301;28;20047;-71
2022/08/12 08:31:13;;;;;;;4.20;1.52;;;22.40;99.90;;;;;;5056532;28;20033;-70
2022/08/12 08:33:40;;;;;;;6.13;2.03;;;22.50;99.90;;;;;;5051763;28;20045;-71
2022/08/12 08:36:06;;;;;;;6.65;1.75;;;22.60;99.90;;;;;;5061134;28;20082;-73
2022/08/12 08:38:32;;;;;;;3.00;1.98;;;22.60;99.90;;;;;;5053197;28;20512;-71
2022/08/12 08:43:41;;;;;;;;;;;22.80;99.90;;;;;;5053877;28;20124;-72
2022/08/12 08:46:07;;;;;;;6.03;1.90;;;22.90;99.90;;;;;;5026212;28;20357;-72
2022/08/12 08:48:33;;;;;;;4.25;2.10;;;23.00;99.90;;;;;;5050651;28;20033;-72
2022/08/12 08:50:59;;;;;;;3.88;1.55;;;23.20;99.90;;;;;;5057663;28;20511;-72
2022/08/12 08:53:25;;;;;;;10.10;1.58;;;23.20;99.90;;;;;;5060091;28;20040;-70
2022/08/12 08:55:52;;;;;;;2.58;1.67;;;23.30;99.90;;;;;;5039379;28;20052;-69
2022/08/12 08:58:20;;;;;;;5.68;1.67;;;23.40;99.90;;;;;;5034704;28;20360;-69
2022/08/12 09:00:48;;;;;;;4.07;1.85;;;23.50;99.90;;;;;;5059530;28;20033;-69
2022/08/12 09:03:14;;;;;;;2.30;1.52;;;23.60;99.90;;;;;;5054298;28;20097;-70
2022/08/12 09:05:39;;;;;;;3.08;1.58;;;23.70;99.90;;;;;;5066743;28;20467;-68
2022/08/12 09:08:05;;;;;;;11.02;2.20;;;23.70;99.90;;;;;;5056403;28;20056;-71
2022/08/12 09:10:32;;;;;;;5.65;2.00;;;23.80;99.90;;;;;;5059009;28;20040;-68
2022/08/12 09:15:44;;;;;;;5.43;2.00;;;24.00;99.90;;;;;;5054821;28;20119;-70
2022/08/12 09:18:10;;;;;;;5.15;2.05;;;24.10;99.90;;;;;;5066047;28;20198;-70
2022/08/12 09:20:38;;;;;;;5.97;2.15;;;24.00;99.90;;;;;;5058355;28;20041;-69
2022/08/12 09:23:06;;;;;;;3.45;2.03;;;24.00;99.90;;;;;;5048571;28;20124;-69
2022/08/12 09:25:33;;;;;;;4.20;1.80;;;24.10;99.90;;;;;;5059176;28;20040;-70
2022/08/12 09:27:59;;;;;;;4.93;2.47;;;24.10;99.90;;;;;;5042402;28;20048;-69
2022/08/12 09:30:26;;;;;;;6.43;1.80;;;24.20;99.90;;;;;;5061976;28;20040;-68
2022/08/12 09:32:52;;;;;;;4.55;2.30;;;24.30;99.90;;;;;;5061146;28;20060;-69
2022/08/12 09:35:25;;;;;;;10.98;2.03;;;24.30;99.90;;;;;;5044475;28;20052;-72
2022/08/12 09:37:56;;;;;;;7.32;1.95;;;24.40;99.90;;;;;;5045618;28;20045;-70
2022/08/12 09:40:23;;;;;;;4.68;2.17;;;24.50;99.90;;;;;;5041022;28;20055;-69
2022/08/12 09:45:33;;;;;;;22.98;2.97;;;24.60;99.90;;;;;;5030171;28;20049;-73
2022/08/12 09:48:02;;;;;;;10.23;1.90;;;24.60;99.90;;;;;;5051670;28;20036;-73
2022/08/12 09:50:28;;;;;;;6.25;1.67;;;24.90;99.90;;;;;;5039586;28;20115;-77
2022/08/12 09:53:15;;;;;;;9.32;2.30;;;25.00;99.50;;;;;;5050189;28;20041;-76
2022/08/12 09:55:51;;;;;;;9.60;1.63;;;25.10;99.10;;;;;;5034041;28;20060;-76
2022/08/12 09:58:18;;;;;;;3.72;1.50;;;25.10;99.00;;;;;;5055903;28;20115;-77
2022/08/12 10:00:45;;;;;;;5.45;1.80;;;25.20;98.90;;;;;;5060740;28;20040;-76
2022/08/12 10:03:13;;;;;;;8.27;1.83;;;25.30;98.90;;;;;;5052768;28;20045;-77
2022/08/12 10:05:42;;;;;;;7.93;1.67;;;25.40;98.80;;;;;;5051754;28;20075;-74
2022/08/12 10:08:10;;;;;;;8.98;1.77;;;25.50;97.50;;;;;;5040240;28;20152;-74
2022/08/12 10:13:40;;;;;;;5.97;1.80;;;25.60;97.40;;;;;;5052115;28;20110;-73
2022/08/12 10:13:42;;;;;;;3.80;1.48;;;25.80;97.30;;;;;;5054468;28;20064;-73
2022/08/12 10:16:27;;;;;;;4.53;1.75;;;25.80;96.80;;;;;;5060708;28;20033;-74
2022/08/12 10:19:00;;;;;;;5.05;1.77;;;26.00;96.20;;;;;;5037916;28;20048;-74
2022/08/12 10:21:35;;;;;;;7.35;1.80;;;26.10;95.20;;;;;;5063508;28;20045;-74
2022/08/12 10:24:03;;;;;;;4.40;1.70;;;26.20;94.80;;;;;;5030541;28;20049;-74
2022/08/12 10:31:59;;;;;;;4.20;1.83;;;26.60;93.30;;;;;;5052875;28;20048;-75
2022/08/12 10:34:26;;;;;;;4.50;1.90;;;26.70;93.10;;;;;;5050344;28;20041;-74
2022/08/12 10:36:57;;;;;;;3.72;1.75;;;26.80;93.40;;;;;;5048319;28;20037;-74
2022/08/12 10:39:25;;;;;;;3.92;1.95;;;26.80;93.30;;;;;;5047287;28;20080;-74
2022/08/12 10:44:35;;;;;;;3.38;1.65;;;26.70;92.40;;;;;;5049790;28;20033;-74
2022/08/12 10:47:03;;;;;;;4.35;1.48;;;27.00;92.40;;;;;;5048790;28;20507;-74
2022/08/12 10:49:33;;;;;;;7.85;2.10;;;27.00;91.90;;;;;;5062490;28;20476;-74
2022/08/12 10:52:01;;;;;;;6.50;1.52;;;27.10;92.00;;;;;;5052311;28;20040;-74
2022/08/12 10:54:28;;;;;;;4.95;1.38;;;27.20;91.80;;;;;;5047150;28;20032;-77
2022/08/12 10:56:56;;;;;;;4.88;1.50;;;27.20;91.60;;;;;;5053926;28;20044;-79
2022/08/12 10:59:27;;;;;;;11.93;1.58;;;27.30;91.60;;;;;;5054662;28;20044;-77
2022/08/12 11:01:55;;;;;;;4.10;1.63;;;27.30;91.70;;;;;;5063819;28;20045;-77
2022/08/12 11:04:21;;;;;;;6.40;2.20;;;27.50;91.40;;;;;;5039240;28;20102;-78
2022/08/12 11:06:47;;;;;;;2.90;1.63;;;27.60;90.90;;;;;;5044416;28;20045;-81
2022/08/12 11:09:17;;;;;;;10.10;1.85;;;27.70;90.80;;;;;;5051540;28;20080;-80
2022/08/12 11:11:47;;;;;;;11.60;1.67;;;27.80;90.40;;;;;;5047433;28;20045;-72
2022/08/12 11:14:24;;;;;;;4.60;1.38;;;27.90;90.30;;;;;;5055576;28;20038;-72
2022/08/12 11:16:56;;;;;;;6.63;1.55;;;28.00;89.30;;;;;;5056267;28;20041;-73
2022/08/12 11:19:23;;;;;;;4.47;1.30;;;28.00;89.70;;;;;;5044545;28;20572;-77
2022/08/12 11:21:48;;;;;;;7.35;1.25;;;28.10;88.70;;;;;;5060475;28;20747;-77
2022/08/12 11:24:14;;;;;;;6.40;1.48;;;28.10;86.90;;;;;;4364710;28;10000851;-75
2022/08/12 11:26:40;;;;;;;3.90;1.20;;;28.30;86.80;;;;;;5062730;28;20526;-76
2022/08/12 11:29:05;;;;;;;5.40;1.80;;;28.40;85.50;;;;;;5059816;28;20048;-77
2022/08/12 11:31:31;;;;;;;6.35;1.70;;;28.50;85.40;;;;;;5055832;28;20049;-77
2022/08/12 11:33:57;;;;;;;5.68;1.33;;;28.70;82.80;;;;;;5061115;28;20834;-78
2022/08/12 11:36:22;;;;;;;12.05;1.80;;;28.80;81.90;;;;;;5057128;28;20055;-72
2022/08/12 11:38:48;;;;;;;11.27;1.73;;;28.90;82.30;;;;;;5059968;28;20529;-73
2022/08/12 11:41:14;;;;;;;10.18;1.40;;;29.00;83.30;;;;;;5035560;28;20094;-75
2022/08/12 11:43:40;;;;;;;6.18;1.50;;;29.10;83.00;;;;;;5060203;28;20036;-77
2022/08/12 11:46:05;;;;;;;2.20;1.30;;;29.10;82.10;;;;;;5055032;28;20044;-75
2022/08/12 11:48:39;;;;;;;10.20;1.60;;;29.20;82.40;;;;;;5060310;28;20036;-73
2022/08/12 11:51:06;;;;;;;1.20;1.10;;;29.20;81.50;;;;;;5061264;28;20048;-73
2022/08/12 11:53:32;;;;;;;2.95;1.23;;;29.10;79.90;;;;;;5060634;28;20079;-72
2022/08/12 11:55:58;;;;;;;2.67;1.30;;;29.10;78.80;;;;;;5061799;28;20063;-72
2022/08/12 11:58:24;;;;;;;8.23;1.67;;;29.20;79.60;;;;;;5052085;28;20052;-74
2022/08/12 12:00:49;;;;;;;6.97;1.23;;;29.10;79.30;;;;;;5034299;28;20041;-78
2022/08/12 12:03:15;;;;;;;4.47;1.48;;;29.40;78.60;;;;;;5059551;28;20124;-77
2022/08/12 12:05:41;;;;;;;1.58;0.90;;;29.50;78.20;;;;;;5034060;28;20053;-76
2022/08/12 12:08:06;;;;;;;4.13;1.20;;;29.70;77.40;;;;;;5058311;28;20419;-79
2022/08/12 12:10:32;;;;;;;5.28;1.25;;;29.90;77.00;;;;;;5053561;28;20135;-77
2022/08/12 12:12:57;;;;;;;1.85;1.00;;;30.00;76.30;;;;;;5053716;28;20381;-79
2022/08/12 12:15:23;;;;;;;1.30;1.15;;;30.20;75.90;;;;;;5055486;28;20371;-79
2022/08/12 12:17:51;;;;;;;6.72;1.42;;;30.30;75.10;;;;;;5050867;28;20041;-79
2022/08/12 12:20:16;;;;;;;6.97;1.00;;;30.40;74.50;;;;;;5068310;28;20052;-78
2022/08/12 12:22:42;;;;;;;2.20;1.20;;;30.50;75.00;;;;;;5059591;28;20412;-76
2022/08/12 12:25:08;;;;;;;5.70;1.60;;;30.60;73.50;;;;;;5059560;28;20049;-75
2022/08/12 12:27:49;;;;;;;3.53;1.27;;;30.60;72.20;;;;;;5066019;28;20049;-75
2022/08/12 12:30:15;;;;;;;3.70;1.05;;;30.70;71.20;;;;;;5056989;28;20044;-75
2022/08/12 12:32:40;;;;;;;4.10;1.13;;;30.80;71.80;;;;;;5048250;28;20124;-76
2022/08/12 12:35:07;;;;;;;4.32;1.27;;;30.90;72.20;;;;;;5060144;28;20457;-77
2022/08/12 12:37:32;;;;;;;3.50;1.10;;;31.00;71.60;;;;;;5049739;28;20056;-75
2022/08/12 12:39:58;;;;;;;2.92;1.15;;;31.10;71.40;;;;;;5040513;28;20033;-75
2022/08/12 12:42:24;;;;;;;3.50;1.40;;;31.10;71.90;;;;;;5061914;28;20128;-75
2022/08/12 12:44:49;;;;;;;2.50;1.00;;;31.30;71.60;;;;;;5064998;28;20045;-75
2022/08/12 12:47:15;;;;;;;6.50;1.15;;;31.30;71.70;;;;;;5053949;28;20082;-75
2022/08/12 12:49:41;;;;;;;6.88;1.67;;;31.40;71.30;;;;;;5066549;28;20462;-78
2022/08/12 12:52:07;;;;;;;5.30;1.23;;;31.40;70.80;;;;;;5059569;28;20041;-74
2022/08/12 12:54:33;;;;;;;1.58;0.98;;;31.50;71.40;;;;;;5066609;28;20052;-75
2022/08/12 12:56:59;;;;;;;6.88;1.33;;;31.50;71.50;;;;;;5041545;28;20051;-76
2022/08/12 12:59:26;;;;;;;6.50;1.33;;;31.60;71.10;;;;;;5060696;28;20098;-75
2022/08/12 13:01:52;;;;;;;4.55;1.20;;;31.70;71.20;;;;;;5057839;28;20044;-76
2022/08/12 13:04:18;;;;;;;1.48;0.85;;;31.70;70.30;;;;;;5060861;28;20041;-79
2022/08/12 13:06:49;;;;;;;2.85;0.88;;;31.70;68.60;;;;;;5045237;28;20437;-77
2022/08/12 13:09:15;;;;;;;6.47;1.17;;;31.70;68.90;;;;;;5048769;28;20507;-77
2022/08/12 13:11:41;;;;;;;5.10;1.23;;;31.70;68.80;;;;;;5051402;28;20101;-76
2022/08/12 13:14:07;;;;;;;6.65;1.10;;;31.70;68.40;;;;;;5055732;28;20458;-76
2022/08/12 13:16:33;;;;;;;2.60;1.02;;;31.80;68.70;;;;;;5058533;28;20041;-79
2022/08/12 13:18:58;;;;;;;10.40;1.52;;;31.90;68.80;;;;;;5051485;28;20051;-77
2022/08/12 13:21:28;;;;;;;6.60;1.45;;;31.70;69.40;;;;;;5056135;28;20404;-78
2022/08/12 13:23:54;;;;;;;4.65;1.23;;;31.70;69.70;;;;;;5059165;28;20329;-78
2022/08/12 13:26:20;;;;;;;3.03;1.00;;;31.50;69.50;;;;;;5057446;28;20049;-80
2022/08/12 13:28:51;;;;;;;4.38;0.95;;;31.50;69.60;;;;;;5059937;28;20504;-79
2022/08/12 13:31:17;;;;;;;4.00;1.10;;;31.60;69.40;;;;;;5057623;28;20586;-74
2022/08/12 13:33:43;;;;;;;1.63;1.00;;;31.60;68.70;;;;;;5045941;28;20044;-79
2022/08/12 13:36:09;;;;;;;4.05;1.00;;;31.70;68.00;;;;;;5053449;28;20047;-80
2022/08/12 13:38:43;;;;;;;10.23;1.27;;;31.80;67.90;;;;;;5065081;28;20602;-79
2022/08/12 13:41:34;;;;;;;6.88;1.00;;;31.70;67.60;;;;;;5057427;28;20049;-79
2022/08/12 13:44:02;;;;;;;5.63;1.92;;;31.60;67.30;;;;;;5046905;28;20166;-73
2022/08/12 13:46:28;;;;;;;2.92;1.00;;;31.50;67.20;;;;;;5058640;28;20056;-80
2022/08/12 13:48:55;;;;;;;1.65;0.93;;;31.50;67.50;;;;;;5042177;28;20037;-81
2022/08/12 13:51:21;;;;;;;7.13;0.95;;;31.60;67.90;;;;;;5059694;28;20049;-74
2022/08/12 13:53:47;;;;;;;2.28;0.88;;;31.70;66.90;;;;;;5059783;28;20047;-81
2022/08/12 13:56:13;;;;;;;2.80;0.85;;;31.70;66.50;;;;;;5061498;28;20037;-79
2022/08/12 13:58:47;;;;;;;6.45;1.60;;;31.80;67.00;;;;;;5053481;28;20037;-78
2022/08/12 14:01:14;;;;;;;4.28;0.88;;;31.90;65.90;;;;;;5048583;28;20040;-77
2022/08/12 14:03:41;;;;;;;4.55;1.00;;;32.00;65.40;;;;;;5050166;28;20114;-78
2022/08/12 14:06:07;;;;;;;4.88;0.70;;;31.90;65.00;;;;;;5042384;28;20051;-78
2022/08/12 14:08:33;;;;;;;2.58;1.10;;;32.00;65.20;;;;;;5050195;28;20041;-87
2022/08/12 14:10:59;;;;;;;4.85;1.42;;;32.00;65.70;;;;;;5056231;28;20021;-80
2022/08/12 14:13:27;;;;;;;6.15;3.10;;;32.00;64.80;;;;;;5065181;28;20501;-85
2022/08/12 14:16:01;;;;;;;7.63;3.53;;;32.00;65.50;;;;;;5065692;28;20051;-74
2022/08/12 14:18:34;;;;;;;12.13;8.18;;;32.00;66.10;;;;;;5053092;28;20041;-75
2022/08/12 14:21:00;;;;;;;;;;;31.90;65.60;;;;;;5050801;28;20438;-76
2022/08/12 14:23:34;;;;;;;9.23;2.88;;;31.80;66.30;;;;;;5061471;28;19924;-76
2022/08/12 14:26:05;;;;;;;4.07;1.80;;;31.70;65.70;;;;;;4348140;28;10000678;-77
2022/08/12 14:28:33;;;;;;;2.47;1.10;;;31.60;66.20;;;;;;5062002;28;20290;-77
2022/08/12 14:31:01;;;;;;;3.92;1.05;;;31.50;66.00;;;;;;5060055;28;20052;-77
2022/08/12 14:33:32;;;;;;;3.05;0.90;;;31.50;65.90;;;;;;5057842;28;20045;-76
2022/08/12 14:35:59;;;;;;;2.17;0.90;;;31.50;65.90;;;;;;5048634;28;20507;-75
2022/08/12 14:38:27;;;;;;;4.22;1.20;;;31.50;66.00;;;;;;5028736;28;20516;-74
2022/08/12 14:40:56;;;;;;;3.22;1.60;;;31.50;66.40;;;;;;5032220;28;20460;-73